sensor_id;sensor_type;location;lat;lon;timestamp;temperature;humidity
19031;DHT22;9648;51.130;13.978;2023-07-29T00:01:52;17.30;99.90
19031;DHT22;9648;51.130;13.978;2023-07-29T00:04:20;17.30;99.90
19031;DHT22;9648;51.130;13.978;2023-07-29T00:06:47;17.30;99.90
19031;DHT22;9648;51.130;13.978;2023-07-29T00:09:15;17.30;99.90
19031;DHT22;9648;51.130;13.978;2023-07-29T00:11:41;17.40;99.90
19031;DHT22;9648;51.130;13.978;2023-07-29T00:14:08;17.40;99.90
19031;DHT22;9648;51.130;13.978;2023-07-29T00:16:35;17.40;99.90
19031;DHT22;9648;51.130;13.978;2023-07-29T00:19:02;17.40;99.90
19031;DHT22;9648;51.130;13.978;2023-07-29T00:21:29;17.40;99.90
19031;DHT22;9648;51.130;13.978;2023-07-29T00:23:58;17.30;99.90
19031;DHT22;9648;51.130;13.978;2023-07-29T00:26:28;17.30;99.90
19031;DHT22;9648;51.130;13.978;2023-07-29T00:28:55;17.30;99.90
19031;DHT22;9648;51.130;13.978;2023-07-29T00:31:22;17.30;99.90
19031;DHT22;9648;51.130;13.978;2023-07-29T00:33:49;17.20;99.90
19031;DHT22;9648;51.130;13.978;2023-07-29T00:36:15;17.10;99.90
19031;DHT22;9648;51.130;13.978;2023-07-29T00:38:42;17.10;99.90
19031;DHT22;9648;51.130;13.978;2023-07-29T00:41:10;17.10;99.90
19031;DHT22;9648;51.130;13.978;2023-07-29T00:43:40;17.20;99.90
19031;DHT22;9648;51.130;13.978;2023-07-29T00:46:08;17.20;99.90
19031;DHT22;9648;51.130;13.978;2023-07-29T00:48:36;17.20;99.90
19031;DHT22;9648;51.130;13.978;2023-07-29T00:51:03;17.30;99.90
19031;DHT22;9648;51.130;13.978;2023-07-29T00:53:30;17.30;99.90
19031;DHT22;9648;51.130;13.978;2023-07-29T00:55:57;17.40;99.90
19031;DHT22;9648;51.130;13.978;2023-07-29T00:58:24;17.40;99.90
19031;DHT22;9648;51.130;13.978;2023-07-29T01:00:52;17.40;99.90
19031;DHT22;9648;51.130;13.978;2023-07-29T01:03:19;17.40;99.90
19031;DHT22;9648;51.130;13.978;2023-07-29T01:06:01;17.40;99.90
19031;DHT22;9648;51.130;13.978;2023-07-29T01:08:37;17.40;99.90
19031;DHT22;9648;51.130;13.978;2023-07-29T01:11:14;17.40;99.90
19031;DHT22;9648;51.130;13.978;2023-07-29T01:13:48;17.30;99.90
19031;DHT22;9648;51.130;13.978;2023-07-29T01:16:22;17.30;99.90
19031;DHT22;9648;51.130;13.978;2023-07-29T01:18:51;17.20;99.90
19031;DHT22;9648;51.130;13.978;2023-07-29T01:21:21;17.20;99.90
19031;DHT22;9648;51.130;13.978;2023-07-29T01:23:57;17.10;99.90
19031;DHT22;9648;51.130;13.978;2023-07-29T01:26:25;17.10;99.90
19031;DHT22;9648;51.130;13.978;2023-07-29T01:28:54;17.00;99.90
19031;DHT22;9648;51.130;13.978;2023-07-29T01:31:28;17.00;99.90
19031;DHT22;9648;51.130;13.978;2023-07-29T01:33:59;16.90;99.90
19031;DHT22;9648;51.130;13.978;2023-07-29T01:36:29;16.90;99.90
19031;DHT22;9648;51.130;13.978;2023-07-29T01:39:02;17.00;99.90
19031;DHT22;9648;51.130;13.978;2023-07-29T01:41:29;16.90;99.90
19031;DHT22;9648;51.130;13.978;2023-07-29T01:43:56;17.00;99.90
19031;DHT22;9648;51.130;13.978;2023-07-29T01:46:23;17.00;99.90
19031;DHT22;9648;51.130;13.978;2023-07-29T01:48:50;17.00;99.90
19031;DHT22;9648;51.130;13.978;2023-07-29T01:51:17;17.00;99.90
19031;DHT22;9648;51.130;13.978;2023-07-29T01:53:44;17.00;99.90
19031;DHT22;9648;51.130;13.978;2023-07-29T01:56:12;17.00;99.90
19031;DHT22;9648;51.130;13.978;2023-07-29T01:58:39;17.10;99.90
19031;DHT22;9648;51.130;13.978;2023-07-29T02:01:06;17.10;99.90
19031;DHT22;9648;51.130;13.978;2023-07-29T02:03:32;17.00;99.90
19031;DHT22;9648;51.130;13.978;2023-07-29T02:05:59;17.00;99.90
19031;DHT22;9648;51.130;13.978;2023-07-29T02:08:26;17.00;99.90
19031;DHT22;9648;51.130;13.978;2023-07-29T02:10:53;16.90;99.90
19031;DHT22;9648;51.130;13.978;2023-07-29T02:13:21;16.80;99.90
19031;DHT22;9648;51.130;13.978;2023-07-29T02:15:47;16.80;99.90
19031;DHT22;9648;51.130;13.978;2023-07-29T02:18:14;16.70;99.90
19031;DHT22;9648;51.130;13.978;2023-07-29T02:20:41;16.70;99.90
19031;DHT22;9648;51.130;13.978;2023-07-29T02:23:14;16.60;99.90
19031;DHT22;9648;51.130;13.978;2023-07-29T02:25:41;16.60;99.90
19031;DHT22;9648;51.130;13.978;2023-07-29T02:28:08;16.50;99.90
19031;DHT22;9648;51.130;13.978;2023-07-29T02:30:36;16.50;99.90
19031;DHT22;9648;51.130;13.978;2023-07-29T02:33:03;16.50;99.90
19031;DHT22;9648;51.130;13.978;2023-07-29T02:35:30;16.50;99.90
19031;DHT22;9648;51.130;13.978;2023-07-29T02:37:57;16.50;99.90
19031;DHT22;9648;51.130;13.978;2023-07-29T02:40:25;16.40;99.90
19031;DHT22;9648;51.130;13.978;2023-07-29T02:42:53;16.50;99.90
19031;DHT22;9648;51.130;13.978;2023-07-29T02:45:20;16.50;99.90
19031;DHT22;9648;51.130;13.978;2023-07-29T02:47:48;16.50;99.90
19031;DHT22;9648;51.130;13.978;2023-07-29T02:50:15;16.40;99.90
19031;DHT22;9648;51.130;13.978;2023-07-29T02:52:42;16.40;99.90
19031;DHT22;9648;51.130;13.978;2023-07-29T02:55:09;16.40;99.90
19031;DHT22;9648;51.130;13.978;2023-07-29T02:57:36;16.40;99.90
19031;DHT22;9648;51.130;13.978;2023-07-29T03:00:03;16.40;99.90
19031;DHT22;9648;51.130;13.978;2023-07-29T03:02:32;16.40;99.90
19031;DHT22;9648;51.130;13.978;2023-07-29T03:05:00;16.40;99.90
19031;DHT22;9648;51.130;13.978;2023-07-29T03:07:27;16.40;99.90
19031;DHT22;9648;51.130;13.978;2023-07-29T03:09:54;16.40;99.90
19031;DHT22;9648;51.130;13.978;2023-07-29T03:12:21;16.40;99.90
19031;DHT22;9648;51.130;13.978;2023-07-29T03:14:47;16.40;99.90
19031;DHT22;9648;51.130;13.978;2023-07-29T03:17:15;16.40;99.90
19031;DHT22;9648;51.130;13.978;2023-07-29T03:19:41;16.50;99.90
19031;DHT22;9648;51.130;13.978;2023-07-29T03:22:09;16.50;99.90
19031;DHT22;9648;51.130;13.978;2023-07-29T03:24:36;16.50;99.90
19031;DHT22;9648;51.130;13.978;2023-07-29T03:27:04;16.50;99.90
19031;DHT22;9648;51.130;13.978;2023-07-29T03:29:31;16.50;99.90
19031;DHT22;9648;51.130;13.978;2023-07-29T03:31:57;16.50;99.90
19031;DHT22;9648;51.130;13.978;2023-07-29T03:34:24;16.50;99.90
19031;DHT22;9648;51.130;13.978;2023-07-29T03:36:51;16.50;99.90
19031;DHT22;9648;51.130;13.978;2023-07-29T03:39:19;16.60;99.90
19031;DHT22;9648;51.130;13.978;2023-07-29T03:41:46;16.60;99.90
19031;DHT22;9648;51.130;13.978;2023-07-29T03:44:13;16.60;99.90
19031;DHT22;9648;51.130;13.978;2023-07-29T03:46:39;16.70;99.90
19031;DHT22;9648;51.130;13.978;2023-07-29T03:49:06;16.70;99.90
19031;DHT22;9648;51.130;13.978;2023-07-29T03:51:33;16.70;99.90
19031;DHT22;9648;51.130;13.978;2023-07-29T03:54:00;16.70;99.90
19031;DHT22;9648;51.130;13.978;2023-07-29T03:56:28;16.70;99.90
19031;DHT22;9648;51.130;13.978;2023-07-29T03:59:02;16.80;99.90
19031;DHT22;9648;51.130;13.978;2023-07-29T04:01:29;16.80;99.90
19031;DHT22;9648;51.130;13.978;2023-07-29T04:03:56;16.90;99.90
19031;DHT22;9648;51.130;13.978;2023-07-29T04:06:22;16.90;99.90
19031;DHT22;9648;51.130;13.978;2023-07-29T04:08:49;17.00;99.90
19031;DHT22;9648;51.130;13.978;2023-07-29T04:11:16;17.00;99.90
19031;DHT22;9648;51.130;13.978;2023-07-29T04:13:44;17.00;99.90
19031;DHT22;9648;51.130;13.978;2023-07-29T04:16:11;17.10;99.90
19031;DHT22;9648;51.130;13.978;2023-07-29T04:18:38;17.10;99.90
19031;DHT22;9648;51.130;13.978;2023-07-29T04:21:05;17.20;99.90
19031;DHT22;9648;51.130;13.978;2023-07-29T04:23:32;17.30;99.90
19031;DHT22;9648;51.130;13.978;2023-07-29T04:25:58;17.30;99.90
19031;DHT22;9648;51.130;13.978;2023-07-29T04:28:25;17.40;99.90
19031;DHT22;9648;51.130;13.978;2023-07-29T04:30:53;17.40;99.90
19031;DHT22;9648;51.130;13.978;2023-07-29T04:33:20;17.40;99.90
19031;DHT22;9648;51.130;13.978;2023-07-29T04:35:47;17.50;99.90
19031;DHT22;9648;51.130;13.978;2023-07-29T04:38:14;17.50;99.90
19031;DHT22;9648;51.130;13.978;2023-07-29T04:40:40;17.60;99.90
19031;DHT22;9648;51.130;13.978;2023-07-29T04:43:07;17.60;99.90
19031;DHT22;9648;51.130;13.978;2023-07-29T04:45:34;17.70;99.90
19031;DHT22;9648;51.130;13.978;2023-07-29T04:48:03;17.70;99.90
19031;DHT22;9648;51.130;13.978;2023-07-29T04:50:29;17.80;99.90
19031;DHT22;9648;51.130;13.978;2023-07-29T04:52:56;17.90;99.90
19031;DHT22;9648;51.130;13.978;2023-07-29T04:55:23;17.90;99.90
19031;DHT22;9648;51.130;13.978;2023-07-29T04:57:50;18.00;99.90
19031;DHT22;9648;51.130;13.978;2023-07-29T05:00:17;18.00;99.90
19031;DHT22;9648;51.130;13.978;2023-07-29T05:02:44;18.00;99.90
19031;DHT22;9648;51.130;13.978;2023-07-29T05:05:12;18.10;99.90
19031;DHT22;9648;51.130;13.978;2023-07-29T05:07:39;18.20;99.90
19031;DHT22;9648;51.130;13.978;2023-07-29T05:10:07;18.20;99.90
19031;DHT22;9648;51.130;13.978;2023-07-29T05:12:34;18.20;99.90
19031;DHT22;9648;51.130;13.978;2023-07-29T05:15:01;18.30;99.90
19031;DHT22;9648;51.130;13.978;2023-07-29T05:17:28;18.30;99.90
19031;DHT22;9648;51.130;13.978;2023-07-29T05:19:55;18.40;99.90
19031;DHT22;9648;51.130;13.978;2023-07-29T05:22:23;18.40;99.90
19031;DHT22;9648;51.130;13.978;2023-07-29T05:24:50;18.50;99.90
19031;DHT22;9648;51.130;13.978;2023-07-29T05:27:17;18.50;99.90
19031;DHT22;9648;51.130;13.978;2023-07-29T05:29:44;18.50;99.90
19031;DHT22;9648;51.130;13.978;2023-07-29T05:32:10;18.60;99.90
19031;DHT22;9648;51.130;13.978;2023-07-29T05:34:38;18.60;99.90
19031;DHT22;9648;51.130;13.978;2023-07-29T05:37:04;18.60;99.90
19031;DHT22;9648;51.130;13.978;2023-07-29T05:39:35;18.70;99.90
19031;DHT22;9648;51.130;13.978;2023-07-29T05:42:03;18.80;99.90
19031;DHT22;9648;51.130;13.978;2023-07-29T05:44:30;18.90;99.90
19031;DHT22;9648;51.130;13.978;2023-07-29T05:46:57;19.00;99.90
19031;DHT22;9648;51.130;13.978;2023-07-29T05:49:24;19.20;99.90
19031;DHT22;9648;51.130;13.978;2023-07-29T05:51:50;19.30;99.90
19031;DHT22;9648;51.130;13.978;2023-07-29T05:54:18;19.40;99.90
19031;DHT22;9648;51.130;13.978;2023-07-29T05:56:47;19.40;99.90
19031;DHT22;9648;51.130;13.978;2023-07-29T05:59:14;19.40;99.90
19031;DHT22;9648;51.130;13.978;2023-07-29T06:01:41;19.50;99.90
19031;DHT22;9648;51.130;13.978;2023-07-29T06:04:07;19.60;99.90
19031;DHT22;9648;51.130;13.978;2023-07-29T06:06:34;19.80;99.90
19031;DHT22;9648;51.130;13.978;2023-07-29T06:09:01;20.00;99.90
19031;DHT22;9648;51.130;13.978;2023-07-29T06:11:28;20.10;99.90
19031;DHT22;9648;51.130;13.978;2023-07-29T06:13:56;20.20;99.90
19031;DHT22;9648;51.130;13.978;2023-07-29T06:16:23;20.30;99.90
19031;DHT22;9648;51.130;13.978;2023-07-29T06:18:49;20.30;99.90
19031;DHT22;9648;51.130;13.978;2023-07-29T06:21:18;20.30;99.90
19031;DHT22;9648;51.130;13.978;2023-07-29T06:23:48;20.30;99.90
19031;DHT22;9648;51.130;13.978;2023-07-29T06:26:15;20.30;99.90
19031;DHT22;9648;51.130;13.978;2023-07-29T06:28:42;20.40;99.90
19031;DHT22;9648;51.130;13.978;2023-07-29T06:31:11;20.40;99.90
19031;DHT22;9648;51.130;13.978;2023-07-29T06:33:37;20.40;99.90
19031;DHT22;9648;51.130;13.978;2023-07-29T06:36:04;20.50;99.90
19031;DHT22;9648;51.130;13.978;2023-07-29T06:38:31;20.50;99.90
19031;DHT22;9648;51.130;13.978;2023-07-29T06:40:58;20.50;99.90
19031;DHT22;9648;51.130;13.978;2023-07-29T06:43:25;20.60;99.90
19031;DHT22;9648;51.130;13.978;2023-07-29T06:45:52;20.60;99.90
19031;DHT22;9648;51.130;13.978;2023-07-29T06:48:20;20.60;99.90
19031;DHT22;9648;51.130;13.978;2023-07-29T06:50:47;20.70;99.90
19031;DHT22;9648;51.130;13.978;2023-07-29T06:53:15;20.90;99.90
19031;DHT22;9648;51.130;13.978;2023-07-29T06:55:42;20.90;99.90
19031;DHT22;9648;51.130;13.978;2023-07-29T06:58:09;20.90;99.90
19031;DHT22;9648;51.130;13.978;2023-07-29T07:00:36;21.00;99.90
19031;DHT22;9648;51.130;13.978;2023-07-29T07:03:02;21.10;99.90
19031;DHT22;9648;51.130;13.978;2023-07-29T07:05:30;21.40;99.90
19031;DHT22;9648;51.130;13.978;2023-07-29T07:07:57;21.60;99.90
19031;DHT22;9648;51.130;13.978;2023-07-29T07:10:24;21.80;99.90
19031;DHT22;9648;51.130;13.978;2023-07-29T07:12:51;21.90;99.90
19031;DHT22;9648;51.130;13.978;2023-07-29T07:15:17;21.90;99.90
19031;DHT22;9648;51.130;13.978;2023-07-29T07:17:44;22.00;99.90
19031;DHT22;9648;51.130;13.978;2023-07-29T07:20:11;22.10;99.90
19031;DHT22;9648;51.130;13.978;2023-07-29T07:22:39;22.20;99.90
19031;DHT22;9648;51.130;13.978;2023-07-29T07:25:07;22.20;99.90
19031;DHT22;9648;51.130;13.978;2023-07-29T07:27:34;22.30;99.90
19031;DHT22;9648;51.130;13.978;2023-07-29T07:30:01;22.40;99.90
19031;DHT22;9648;51.130;13.978;2023-07-29T07:32:28;22.50;99.90
19031;DHT22;9648;51.130;13.978;2023-07-29T07:34:54;22.60;99.90
19031;DHT22;9648;51.130;13.978;2023-07-29T07:37:21;22.60;99.90
19031;DHT22;9648;51.130;13.978;2023-07-29T07:39:49;22.50;99.90
19031;DHT22;9648;51.130;13.978;2023-07-29T07:42:16;22.50;99.90
19031;DHT22;9648;51.130;13.978;2023-07-29T07:44:43;22.50;99.90
19031;DHT22;9648;51.130;13.978;2023-07-29T07:47:10;22.60;99.90
19031;DHT22;9648;51.130;13.978;2023-07-29T07:49:36;22.60;99.90
19031;DHT22;9648;51.130;13.978;2023-07-29T07:52:04;22.50;99.90
19031;DHT22;9648;51.130;13.978;2023-07-29T07:54:31;22.50;99.90
19031;DHT22;9648;51.130;13.978;2023-07-29T07:56:59;22.50;99.90
19031;DHT22;9648;51.130;13.978;2023-07-29T07:59:25;22.70;99.90
19031;DHT22;9648;51.130;13.978;2023-07-29T08:01:52;22.80;99.90
19031;DHT22;9648;51.130;13.978;2023-07-29T08:04:19;23.00;99.90
19031;DHT22;9648;51.130;13.978;2023-07-29T08:06:46;23.10;99.90
19031;DHT22;9648;51.130;13.978;2023-07-29T08:09:12;23.20;99.90
19031;DHT22;9648;51.130;13.978;2023-07-29T08:11:40;23.30;99.90
19031;DHT22;9648;51.130;13.978;2023-07-29T08:14:08;23.40;99.90
19031;DHT22;9648;51.130;13.978;2023-07-29T08:16:35;23.50;99.90
19031;DHT22;9648;51.130;13.978;2023-07-29T08:19:02;23.60;99.90
19031;DHT22;9648;51.130;13.978;2023-07-29T08:21:28;23.70;99.90
19031;DHT22;9648;51.130;13.978;2023-07-29T08:23:55;24.00;99.90
19031;DHT22;9648;51.130;13.978;2023-07-29T08:26:22;24.00;99.90
19031;DHT22;9648;51.130;13.978;2023-07-29T08:28:49;24.10;99.90
19031;DHT22;9648;51.130;13.978;2023-07-29T08:31:17;24.10;99.90
19031;DHT22;9648;51.130;13.978;2023-07-29T08:33:44;24.00;99.90
19031;DHT22;9648;51.130;13.978;2023-07-29T08:36:11;24.10;99.90
19031;DHT22;9648;51.130;13.978;2023-07-29T08:38:38;24.10;99.90
19031;DHT22;9648;51.130;13.978;2023-07-29T08:41:10;24.30;99.90
19031;DHT22;9648;51.130;13.978;2023-07-29T08:43:43;24.30;99.90
19031;DHT22;9648;51.130;13.978;2023-07-29T08:46:12;24.40;99.90
19031;DHT22;9648;51.130;13.978;2023-07-29T08:48:41;24.50;99.90
19031;DHT22;9648;51.130;13.978;2023-07-29T08:51:09;24.70;99.90
19031;DHT22;9648;51.130;13.978;2023-07-29T08:53:36;24.70;99.90
19031;DHT22;9648;51.130;13.978;2023-07-29T08:56:04;24.70;99.90
19031;DHT22;9648;51.130;13.978;2023-07-29T08:58:31;24.70;99.90
19031;DHT22;9648;51.130;13.978;2023-07-29T09:00:59;24.60;99.90
19031;DHT22;9648;51.130;13.978;2023-07-29T09:03:26;24.50;99.90
19031;DHT22;9648;51.130;13.978;2023-07-29T09:05:55;24.50;99.90
19031;DHT22;9648;51.130;13.978;2023-07-29T09:08:23;24.50;99.90
19031;DHT22;9648;51.130;13.978;2023-07-29T09:10:50;24.40;99.90
19031;DHT22;9648;51.130;13.978;2023-07-29T09:13:17;24.40;99.90
19031;DHT22;9648;51.130;13.978;2023-07-29T09:15:44;24.40;99.90
19031;DHT22;9648;51.130;13.978;2023-07-29T09:18:15;24.50;99.90
19031;DHT22;9648;51.130;13.978;2023-07-29T09:20:42;24.50;99.90
19031;DHT22;9648;51.130;13.978;2023-07-29T09:23:10;24.70;99.90
19031;DHT22;9648;51.130;13.978;2023-07-29T09:25:38;24.80;99.90
19031;DHT22;9648;51.130;13.978;2023-07-29T09:28:09;25.00;99.90
19031;DHT22;9648;51.130;13.978;2023-07-29T09:30:37;25.10;99.90
19031;DHT22;9648;51.130;13.978;2023-07-29T09:33:03;25.20;99.90
19031;DHT22;9648;51.130;13.978;2023-07-29T09:35:32;25.20;99.90
19031;DHT22;9648;51.130;13.978;2023-07-29T09:37:59;25.20;99.90
19031;DHT22;9648;51.130;13.978;2023-07-29T09:40:28;25.10;99.90
19031;DHT22;9648;51.130;13.978;2023-07-29T09:43:00;24.80;99.90
19031;DHT22;9648;51.130;13.978;2023-07-29T09:45:27;24.70;99.90
19031;DHT22;9648;51.130;13.978;2023-07-29T09:47:55;24.70;99.90
19031;DHT22;9648;51.130;13.978;2023-07-29T09:50:23;24.80;99.90
19031;DHT22;9648;51.130;13.978;2023-07-29T09:52:51;25.00;99.90
19031;DHT22;9648;51.130;13.978;2023-07-29T09:55:20;25.20;99.90
19031;DHT22;9648;51.130;13.978;2023-07-29T09:57:53;25.40;99.90
19031;DHT22;9648;51.130;13.978;2023-07-29T10:00:20;25.50;99.90
19031;DHT22;9648;51.130;13.978;2023-07-29T10:02:47;25.60;99.90
19031;DHT22;9648;51.130;13.978;2023-07-29T10:05:14;25.50;99.90
19031;DHT22;9648;51.130;13.978;2023-07-29T10:07:41;25.50;99.90
19031;DHT22;9648;51.130;13.978;2023-07-29T10:10:09;25.50;99.90
19031;DHT22;9648;51.130;13.978;2023-07-29T10:12:36;25.60;99.90
19031;DHT22;9648;51.130;13.978;2023-07-29T10:15:05;25.80;99.90
19031;DHT22;9648;51.130;13.978;2023-07-29T10:17:35;25.80;99.90
19031;DHT22;9648;51.130;13.978;2023-07-29T10:20:04;25.80;99.90
19031;DHT22;9648;51.130;13.978;2023-07-29T10:22:35;25.80;99.90
19031;DHT22;9648;51.130;13.978;2023-07-29T10:25:04;25.90;99.90
19031;DHT22;9648;51.130;13.978;2023-07-29T10:27:39;25.80;99.90
19031;DHT22;9648;51.130;13.978;2023-07-29T10:30:11;25.80;99.90
19031;DHT22;9648;51.130;13.978;2023-07-29T10:32:40;25.60;99.90
19031;DHT22;9648;51.130;13.978;2023-07-29T10:35:08;25.60;99.90
19031;DHT22;9648;51.130;13.978;2023-07-29T10:37:35;25.50;99.90
19031;DHT22;9648;51.130;13.978;2023-07-29T10:40:07;25.30;99.90
19031;DHT22;9648;51.130;13.978;2023-07-29T10:42:34;25.20;99.90
19031;DHT22;9648;51.130;13.978;2023-07-29T10:45:02;24.80;99.90
19031;DHT22;9648;51.130;13.978;2023-07-29T10:47:44;24.40;99.90
19031;DHT22;9648;51.130;13.978;2023-07-29T10:50:17;24.10;99.90
19031;DHT22;9648;51.130;13.978;2023-07-29T10:52:49;24.00;99.90
19031;DHT22;9648;51.130;13.978;2023-07-29T10:55:27;24.00;99.90
19031;DHT22;9648;51.130;13.978;2023-07-29T10:58:14;24.10;99.90
19031;DHT22;9648;51.130;13.978;2023-07-29T11:00:45;24.10;99.90
19031;DHT22;9648;51.130;13.978;2023-07-29T11:03:14;24.20;99.90
19031;DHT22;9648;51.130;13.978;2023-07-29T11:05:46;24.10;99.90
19031;DHT22;9648;51.130;13.978;2023-07-29T11:08:22;24.30;99.90
19031;DHT22;9648;51.130;13.978;2023-07-29T11:11:06;24.60;99.90
19031;DHT22;9648;51.130;13.978;2023-07-29T11:13:35;24.80;99.90
19031;DHT22;9648;51.130;13.978;2023-07-29T11:16:02;25.00;99.90
19031;DHT22;9648;51.130;13.978;2023-07-29T11:18:32;25.10;99.90
19031;DHT22;9648;51.130;13.978;2023-07-29T11:21:00;25.30;99.90
19031;DHT22;9648;51.130;13.978;2023-07-29T11:23:31;25.40;99.90
19031;DHT22;9648;51.130;13.978;2023-07-29T11:26:02;25.20;99.90
19031;DHT22;9648;51.130;13.978;2023-07-29T11:28:29;25.00;99.90
19031;DHT22;9648;51.130;13.978;2023-07-29T11:30:57;24.70;99.90
19031;DHT22;9648;51.130;13.978;2023-07-29T11:33:25;24.40;99.90
19031;DHT22;9648;51.130;13.978;2023-07-29T11:35:55;24.20;99.90
19031;DHT22;9648;51.130;13.978;2023-07-29T11:38:22;24.00;99.90
19031;DHT22;9648;51.130;13.978;2023-07-29T11:40:58;24.00;99.90
19031;DHT22;9648;51.130;13.978;2023-07-29T11:43:25;24.10;99.90
19031;DHT22;9648;51.130;13.978;2023-07-29T11:45:52;24.20;99.90
19031;DHT22;9648;51.130;13.978;2023-07-29T11:48:26;24.20;99.90
19031;DHT22;9648;51.130;13.978;2023-07-29T11:50:55;24.10;99.90
19031;DHT22;9648;51.130;13.978;2023-07-29T11:53:22;23.90;99.90
19031;DHT22;9648;51.130;13.978;2023-07-29T11:55:51;23.70;99.90
19031;DHT22;9648;51.130;13.978;2023-07-29T11:58:18;23.60;99.90
19031;DHT22;9648;51.130;13.978;2023-07-29T12:00:45;23.40;99.90
19031;DHT22;9648;51.130;13.978;2023-07-29T12:03:13;23.30;99.90
19031;DHT22;9648;51.130;13.978;2023-07-29T12:05:42;23.30;99.90
19031;DHT22;9648;51.130;13.978;2023-07-29T12:08:10;23.30;99.90
19031;DHT22;9648;51.130;13.978;2023-07-29T12:10:37;23.30;99.90
19031;DHT22;9648;51.130;13.978;2023-07-29T12:13:04;23.30;99.90
19031;DHT22;9648;51.130;13.978;2023-07-29T12:15:31;23.40;99.90
19031;DHT22;9648;51.130;13.978;2023-07-29T12:17:59;23.40;99.90
19031;DHT22;9648;51.130;13.978;2023-07-29T12:20:26;23.40;99.90
19031;DHT22;9648;51.130;13.978;2023-07-29T12:22:56;23.40;99.90
19031;DHT22;9648;51.130;13.978;2023-07-29T12:25:28;23.50;99.90
19031;DHT22;9648;51.130;13.978;2023-07-29T12:27:54;23.60;99.90
19031;DHT22;9648;51.130;13.978;2023-07-29T12:30:22;23.70;99.90
19031;DHT22;9648;51.130;13.978;2023-07-29T12:32:50;23.80;99.90
19031;DHT22;9648;51.130;13.978;2023-07-29T12:35:17;24.00;99.90
19031;DHT22;9648;51.130;13.978;2023-07-29T12:37:44;24.10;99.90
19031;DHT22;9648;51.130;13.978;2023-07-29T12:40:23;24.20;99.90
19031;DHT22;9648;51.130;13.978;2023-07-29T12:42:52;24.30;99.90
19031;DHT22;9648;51.130;13.978;2023-07-29T12:45:19;24.30;99.90
19031;DHT22;9648;51.130;13.978;2023-07-29T12:47:48;24.40;99.90
19031;DHT22;9648;51.130;13.978;2023-07-29T12:50:15;24.60;99.90
19031;DHT22;9648;51.130;13.978;2023-07-29T12:52:42;24.80;99.90
19031;DHT22;9648;51.130;13.978;2023-07-29T12:55:08;24.90;99.90
19031;DHT22;9648;51.130;13.978;2023-07-29T12:57:39;25.00;99.90
19031;DHT22;9648;51.130;13.978;2023-07-29T13:00:09;25.10;99.90
19031;DHT22;9648;51.130;13.978;2023-07-29T13:02:36;25.30;99.90
19031;DHT22;9648;51.130;13.978;2023-07-29T13:05:03;25.30;99.90
19031;DHT22;9648;51.130;13.978;2023-07-29T13:07:30;25.40;99.90
19031;DHT22;9648;51.130;13.978;2023-07-29T13:09:57;25.40;99.90
19031;DHT22;9648;51.130;13.978;2023-07-29T13:12:23;25.50;99.90
19031;DHT22;9648;51.130;13.978;2023-07-29T13:14:50;25.60;99.90
19031;DHT22;9648;51.130;13.978;2023-07-29T13:17:18;25.80;99.90
19031;DHT22;9648;51.130;13.978;2023-07-29T13:19:46;26.00;99.90
19031;DHT22;9648;51.130;13.978;2023-07-29T13:22:13;26.10;99.90
19031;DHT22;9648;51.130;13.978;2023-07-29T13:24:39;26.00;99.90
19031;DHT22;9648;51.130;13.978;2023-07-29T13:27:06;25.80;99.90
19031;DHT22;9648;51.130;13.978;2023-07-29T13:29:33;25.80;99.90
19031;DHT22;9648;51.130;13.978;2023-07-29T13:32:00;25.80;99.90
19031;DHT22;9648;51.130;13.978;2023-07-29T13:34:28;25.80;99.90
19031;DHT22;9648;51.130;13.978;2023-07-29T13:36:55;25.60;99.90
19031;DHT22;9648;51.130;13.978;2023-07-29T13:39:23;25.60;99.90
19031;DHT22;9648;51.130;13.978;2023-07-29T13:41:50;25.50;99.90
19031;DHT22;9648;51.130;13.978;2023-07-29T13:44:16;25.50;99.90
19031;DHT22;9648;51.130;13.978;2023-07-29T13:46:43;25.50;99.90
19031;DHT22;9648;51.130;13.978;2023-07-29T13:49:10;25.60;99.90
19031;DHT22;9648;51.130;13.978;2023-07-29T13:51:38;25.50;99.90
19031;DHT22;9648;51.130;13.978;2023-07-29T13:54:05;25.40;99.90
19031;DHT22;9648;51.130;13.978;2023-07-29T13:56:32;25.50;99.90
19031;DHT22;9648;51.130;13.978;2023-07-29T13:58:58;25.60;99.90
19031;DHT22;9648;51.130;13.978;2023-07-29T14:01:25;25.60;99.90
19031;DHT22;9648;51.130;13.978;2023-07-29T14:03:52;25.60;99.90
19031;DHT22;9648;51.130;13.978;2023-07-29T14:06:19;25.60;99.90
19031;DHT22;9648;51.130;13.978;2023-07-29T14:08:47;25.60;99.90
19031;DHT22;9648;51.130;13.978;2023-07-29T14:11:14;25.70;99.90
19031;DHT22;9648;51.130;13.978;2023-07-29T14:13:40;25.60;99.90
19031;DHT22;9648;51.130;13.978;2023-07-29T14:16:07;25.70;99.90
19031;DHT22;9648;51.130;13.978;2023-07-29T14:18:34;25.60;99.90
19031;DHT22;9648;51.130;13.978;2023-07-29T14:21:01;25.50;99.90
19031;DHT22;9648;51.130;13.978;2023-07-29T14:23:27;25.60;99.90
19031;DHT22;9648;51.130;13.978;2023-07-29T14:26:04;25.70;99.90
19031;DHT22;9648;51.130;13.978;2023-07-29T14:28:31;25.70;99.90
19031;DHT22;9648;51.130;13.978;2023-07-29T14:30:57;25.80;99.90
19031;DHT22;9648;51.130;13.978;2023-07-29T14:33:24;25.80;99.90
19031;DHT22;9648;51.130;13.978;2023-07-29T14:35:51;25.90;99.90
19031;DHT22;9648;51.130;13.978;2023-07-29T14:38:19;25.90;99.90
19031;DHT22;9648;51.130;13.978;2023-07-29T14:40:47;25.90;99.80
19031;DHT22;9648;51.130;13.978;2023-07-29T14:43:17;25.90;99.20
19031;DHT22;9648;51.130;13.978;2023-07-29T14:45:44;25.90;98.10
19031;DHT22;9648;51.130;13.978;2023-07-29T14:48:11;25.90;98.70
19031;DHT22;9648;51.130;13.978;2023-07-29T14:50:37;25.90;98.80
19031;DHT22;9648;51.130;13.978;2023-07-29T14:53:04;25.90;98.30
19031;DHT22;9648;51.130;13.978;2023-07-29T14:55:31;26.00;98.10
19031;DHT22;9648;51.130;13.978;2023-07-29T14:57:58;26.00;98.10
19031;DHT22;9648;51.130;13.978;2023-07-29T15:00:26;26.10;97.80
19031;DHT22;9648;51.130;13.978;2023-07-29T15:02:53;26.10;94.80
19031;DHT22;9648;51.130;13.978;2023-07-29T15:05:19;26.20;95.20
19031;DHT22;9648;51.130;13.978;2023-07-29T15:07:46;26.30;94.50
19031;DHT22;9648;51.130;13.978;2023-07-29T15:10:14;26.40;94.50
19031;DHT22;9648;51.130;13.978;2023-07-29T15:12:41;26.40;94.00
19031;DHT22;9648;51.130;13.978;2023-07-29T15:15:09;26.50;92.80
19031;DHT22;9648;51.130;13.978;2023-07-29T15:17:37;26.50;91.80
19031;DHT22;9648;51.130;13.978;2023-07-29T15:20:05;26.40;91.20
19031;DHT22;9648;51.130;13.978;2023-07-29T15:22:32;26.50;90.80
19031;DHT22;9648;51.130;13.978;2023-07-29T15:24:58;26.60;91.50
19031;DHT22;9648;51.130;13.978;2023-07-29T15:27:26;26.70;91.90
19031;DHT22;9648;51.130;13.978;2023-07-29T15:29:52;26.80;88.90
19031;DHT22;9648;51.130;13.978;2023-07-29T15:32:20;26.80;87.60
19031;DHT22;9648;51.130;13.978;2023-07-29T15:34:48;26.90;85.50